createdAt,value
2018-08-22T00:00:40.899Z,16.04
2018-08-22T00:01:40.855Z,16.00
2018-08-22T00:02:40.654Z,16.07
2018-08-22T00:03:40.532Z,16.04
2018-08-22T00:04:40.412Z,16.11
2018-08-22T00:05:40.288Z,16.09
2018-08-22T00:06:40.169Z,16.12
2018-08-22T00:07:40.045Z,16.07
2018-08-22T00:08:39.930Z,16.12
2018-08-22T00:09:39.813Z,16.14
2018-08-22T00:10:39.681Z,16.06
2018-08-22T00:11:39.559Z,16.09
2018-08-22T00:12:39.438Z,16.00
2018-08-22T00:13:39.317Z,16.07
2018-08-22T00:14:39.195Z,15.94
2018-08-22T00:15:39.075Z,15.92
2018-08-22T00:16:38.954Z,15.86
2018-08-22T00:17:38.832Z,15.88
2018-08-22T00:18:38.709Z,15.85
2018-08-22T00:19:38.589Z,15.82
2018-08-22T00:20:38.465Z,15.92
2018-08-22T00:21:38.348Z,15.93
2018-08-22T00:22:38.224Z,15.94
2018-08-22T00:23:38.101Z,15.94
2018-08-22T00:24:37.989Z,15.99
2018-08-22T00:25:37.863Z,15.97
2018-08-22T00:26:37.735Z,15.92
2018-08-22T00:27:37.615Z,15.78
2018-08-22T00:28:37.505Z,15.64
2018-08-22T00:29:37.373Z,15.61
2018-08-22T00:30:37.251Z,15.67
2018-08-22T00:31:37.131Z,15.64
2018-08-22T00:32:37.009Z,15.61
2018-08-22T00:33:36.892Z,15.63
2018-08-22T00:34:36.773Z,15.70
2018-08-22T00:35:36.649Z,15.72
2018-08-22T00:36:36.525Z,15.70
2018-08-22T00:37:36.407Z,15.67
2018-08-22T00:38:36.284Z,15.59
2018-08-22T00:39:36.162Z,15.70
2018-08-22T00:40:36.041Z,15.72
2018-08-22T00:41:35.917Z,15.68
2018-08-22T00:42:35.798Z,15.61
2018-08-22T00:43:35.676Z,15.64
2018-08-22T00:44:35.559Z,15.70
2018-08-22T00:45:35.437Z,15.72
2018-08-22T00:46:35.310Z,15.72
2018-08-22T00:47:35.191Z,15.75
2018-08-22T00:48:35.090Z,15.79
2018-08-22T00:49:34.948Z,15.78
2018-08-22T00:50:34.828Z,15.81
2018-08-22T00:51:34.706Z,15.72
2018-08-22T00:52:34.585Z,15.78
2018-08-22T00:53:34.462Z,15.68
2018-08-22T00:54:34.343Z,15.61
2018-08-22T00:55:34.218Z,15.57
2018-08-22T00:56:34.102Z,15.66
2018-08-22T00:57:33.978Z,15.64
2018-08-22T00:58:33.859Z,15.60
2018-08-22T00:59:33.735Z,15.59
2018-08-22T01:00:33.615Z,15.54
2018-08-22T01:01:33.492Z,15.63
2018-08-22T01:02:33.370Z,15.63
2018-08-22T01:03:33.250Z,15.57
2018-08-22T01:04:33.130Z,15.52
2018-08-22T01:05:33.008Z,15.49
2018-08-22T01:06:32.891Z,15.45
2018-08-22T01:07:32.764Z,15.54
2018-08-22T01:08:32.642Z,15.61
2018-08-22T01:09:32.520Z,15.57
2018-08-22T01:10:32.406Z,15.66
2018-08-22T01:11:32.277Z,15.64
2018-08-22T01:12:32.156Z,15.59
2018-08-22T01:13:32.033Z,15.61
2018-08-22T01:14:31.916Z,15.51
2018-08-22T01:15:31.789Z,15.59
2018-08-22T01:16:31.668Z,15.59
2018-08-22T01:17:31.549Z,15.52
2018-08-22T01:18:31.431Z,15.56
2018-08-22T01:19:31.308Z,15.59
2018-08-22T01:20:31.186Z,15.60
2018-08-22T01:21:31.074Z,15.48
2018-08-22T01:22:30.938Z,15.48
2018-08-22T01:23:30.819Z,15.49
2018-08-22T01:24:30.699Z,15.49
2018-08-22T01:25:30.576Z,15.48
2018-08-22T01:26:30.455Z,15.48
2018-08-22T01:27:30.334Z,15.41
2018-08-22T01:28:30.211Z,15.48
2018-08-22T01:29:30.091Z,15.49
2018-08-22T01:30:29.965Z,15.42
2018-08-22T01:31:29.845Z,15.46
2018-08-22T01:32:29.724Z,15.48
2018-08-22T01:33:29.602Z,15.43
2018-08-22T01:34:29.486Z,15.42
2018-08-22T01:35:29.361Z,15.43
2018-08-22T01:36:29.237Z,15.49
2018-08-22T01:37:29.114Z,15.41
2018-08-22T01:38:28.993Z,15.45
2018-08-22T01:39:28.872Z,15.43
2018-08-22T01:40:28.749Z,15.38
2018-08-22T01:41:28.626Z,15.30
2018-08-22T01:42:28.503Z,15.36
2018-08-22T01:43:28.387Z,15.33
2018-08-22T01:44:28.264Z,15.38
2018-08-22T01:45:28.138Z,15.31
2018-08-22T01:46:28.020Z,15.36
2018-08-22T01:47:27.897Z,15.27
2018-08-22T01:48:27.776Z,15.36
2018-08-22T01:49:27.653Z,15.35
2018-08-22T01:50:27.531Z,15.39
2018-08-22T01:51:27.408Z,15.36
2018-08-22T01:52:27.285Z,15.31
2018-08-22T01:53:27.163Z,15.28
2018-08-22T01:54:27.042Z,15.31
2018-08-22T01:55:26.920Z,15.33
2018-08-22T01:56:26.797Z,15.30
2018-08-22T01:57:26.678Z,15.21
2018-08-22T01:58:26.555Z,15.33
2018-08-22T01:59:26.432Z,15.30
2018-08-22T02:00:26.310Z,15.28
2018-08-22T02:01:26.190Z,15.28
2018-08-22T02:02:26.068Z,15.26
2018-08-22T02:03:25.944Z,15.26
2018-08-22T02:04:25.828Z,15.20
2018-08-22T02:05:25.705Z,15.23
2018-08-22T02:06:25.577Z,15.19
2018-08-22T02:07:25.457Z,15.17
2018-08-22T02:08:25.334Z,15.20
2018-08-22T02:09:25.211Z,15.17
2018-08-22T02:10:25.090Z,15.19
2018-08-22T02:11:24.967Z,15.21
2018-08-22T02:12:24.845Z,15.17
2018-08-22T02:13:24.725Z,15.17
2018-08-22T02:14:24.601Z,15.09
2018-08-22T02:15:24.479Z,15.08
2018-08-22T02:16:24.362Z,15.05
2018-08-22T02:17:24.234Z,15.08
2018-08-22T02:18:24.114Z,15.03
2018-08-22T02:19:23.995Z,15.06
2018-08-22T02:20:23.869Z,15.05
2018-08-22T02:21:23.745Z,15.08
2018-08-22T02:22:23.625Z,15.06
2018-08-22T02:23:23.501Z,15.09
2018-08-22T02:24:23.379Z,15.03
2018-08-22T02:25:23.261Z,15.01
2018-08-22T02:26:23.135Z,14.95
2018-08-22T02:27:23.013Z,14.88
2018-08-22T02:28:22.893Z,14.90
2018-08-22T02:29:22.773Z,14.87
2018-08-22T02:30:22.648Z,14.91
2018-08-22T02:31:22.530Z,14.74
2018-08-22T02:32:22.405Z,14.81
2018-08-22T02:33:22.278Z,14.69
2018-08-22T02:34:22.160Z,14.68
2018-08-22T02:35:22.040Z,14.67
2018-08-22T02:36:21.912Z,14.80
2018-08-22T02:37:21.789Z,14.69
2018-08-22T02:38:21.668Z,14.75
2018-08-22T02:39:21.547Z,14.78
2018-08-22T02:40:21.425Z,14.72
2018-08-22T02:41:21.302Z,14.74
2018-08-22T02:42:21.179Z,14.68
2018-08-22T02:43:21.062Z,14.69
2018-08-22T02:44:20.936Z,14.72
2018-08-22T02:45:20.814Z,14.57
2018-08-22T02:46:20.688Z,14.64
2018-08-22T02:47:20.569Z,14.67
2018-08-22T02:48:20.445Z,14.54
2018-08-22T02:49:20.324Z,14.54
2018-08-22T02:50:20.204Z,14.50
2018-08-22T02:51:20.079Z,14.49
2018-08-22T02:52:19.957Z,14.44
2018-08-22T02:53:19.834Z,14.47
2018-08-22T02:54:19.712Z,14.47
2018-08-22T02:55:19.590Z,14.44
2018-08-22T02:56:19.465Z,14.43
2018-08-22T02:57:19.344Z,14.31
2018-08-22T02:58:19.223Z,14.34
2018-08-22T02:59:19.100Z,14.35
2018-08-22T03:00:18.976Z,14.39
2018-08-22T03:01:18.854Z,14.46
2018-08-22T03:02:18.731Z,14.28
2018-08-22T03:03:18.610Z,14.28
2018-08-22T03:04:18.486Z,14.39
2018-08-22T03:05:18.366Z,14.37
2018-08-22T03:06:18.240Z,14.38
2018-08-22T03:07:18.116Z,14.42
2018-08-22T03:08:17.996Z,14.39
2018-08-22T03:09:17.872Z,14.39
2018-08-22T03:10:17.751Z,14.38
2018-08-22T03:11:17.630Z,14.35
2018-08-22T03:12:17.508Z,14.28
2018-08-22T03:13:17.386Z,14.39
2018-08-22T03:14:17.256Z,14.43
2018-08-22T03:15:17.136Z,14.46
2018-08-22T03:16:17.016Z,14.34
2018-08-22T03:17:16.890Z,14.42
2018-08-22T03:18:16.766Z,14.46
2018-08-22T03:19:16.644Z,14.46
2018-08-22T03:20:16.522Z,14.38
2018-08-22T03:21:16.397Z,14.32
2018-08-22T03:22:16.278Z,14.32
2018-08-22T03:23:16.156Z,14.32
2018-08-22T03:24:16.031Z,14.37
2018-08-22T03:25:15.908Z,14.47
2018-08-22T03:26:15.853Z,14.39
2018-08-22T03:27:15.663Z,14.49
2018-08-22T03:28:15.539Z,14.43
2018-08-22T03:29:15.416Z,14.43
2018-08-22T03:30:15.292Z,14.49
2018-08-22T03:31:15.174Z,14.37
2018-08-22T03:32:15.051Z,14.42
2018-08-22T03:33:14.925Z,14.35
2018-08-22T03:34:14.802Z,14.32
2018-08-22T03:35:14.684Z,14.32
2018-08-22T03:36:14.559Z,14.29
2018-08-22T03:37:14.460Z,14.34
2018-08-22T03:38:14.311Z,14.35
2018-08-22T03:39:14.192Z,14.38
2018-08-22T03:40:14.066Z,14.31
2018-08-22T03:41:13.942Z,14.37
2018-08-22T03:42:13.820Z,14.32
2018-08-22T03:43:13.697Z,14.21
2018-08-22T03:44:13.575Z,14.31
2018-08-22T03:45:13.451Z,14.21
2018-08-22T03:46:13.328Z,14.28
2018-08-22T03:47:13.212Z,14.21
2018-08-22T03:48:13.084Z,14.31
2018-08-22T03:49:12.958Z,14.24
2018-08-22T03:50:12.845Z,14.34
2018-08-22T03:51:12.718Z,14.32
2018-08-22T03:52:12.594Z,14.35
2018-08-22T03:53:12.468Z,14.37
2018-08-22T03:54:12.347Z,14.37
2018-08-22T03:55:12.222Z,14.34
2018-08-22T03:56:12.101Z,14.31
2018-08-22T03:57:11.977Z,14.34
2018-08-22T03:58:11.858Z,14.31
2018-08-22T03:59:11.734Z,14.24
2018-08-22T04:00:11.609Z,14.35
2018-08-22T04:01:11.485Z,14.34
2018-08-22T04:02:11.365Z,14.42
2018-08-22T04:03:11.243Z,14.29
2018-08-22T04:04:11.117Z,14.24
2018-08-22T04:05:10.997Z,14.20
2018-08-22T04:06:10.873Z,14.17
2018-08-22T04:07:10.752Z,14.20
2018-08-22T04:08:10.627Z,14.20
2018-08-22T04:09:10.508Z,14.19
2018-08-22T04:10:10.389Z,14.19
2018-08-22T04:11:10.261Z,14.25
2018-08-22T04:12:10.135Z,14.24
2018-08-22T04:13:10.014Z,14.17
2018-08-22T04:14:09.892Z,14.34
2018-08-22T04:15:09.784Z,14.35
2018-08-22T04:16:09.643Z,14.34
2018-08-22T04:17:09.520Z,14.34
2018-08-22T04:18:09.397Z,14.46
2018-08-22T04:19:09.275Z,14.37
2018-08-22T04:20:09.153Z,14.39
2018-08-22T04:21:09.030Z,14.47
2018-08-22T04:22:08.906Z,14.43
2018-08-22T04:23:08.794Z,14.46
2018-08-22T04:24:08.701Z,14.52
2018-08-22T04:25:08.538Z,14.54
2018-08-22T04:26:08.415Z,14.64
2018-08-22T04:27:08.294Z,14.62
2018-08-22T04:28:08.184Z,14.53
2018-08-22T04:29:08.045Z,14.57
2018-08-22T04:30:07.927Z,14.54
2018-08-22T04:31:07.803Z,14.60
2018-08-22T04:32:07.679Z,14.56
2018-08-22T04:33:07.558Z,14.61
2018-08-22T04:34:07.435Z,14.57
2018-08-22T04:35:07.335Z,14.57
2018-08-22T04:36:07.188Z,14.57
2018-08-22T04:37:07.065Z,14.65
2018-08-22T04:38:06.942Z,14.64
2018-08-22T04:39:06.830Z,14.65
2018-08-22T04:40:06.698Z,14.69
2018-08-22T04:41:06.573Z,14.75
2018-08-22T04:42:06.455Z,14.72
2018-08-22T04:43:06.331Z,14.74
2018-08-22T04:44:06.206Z,14.83
2018-08-22T04:45:06.086Z,14.81
2018-08-22T04:46:05.961Z,14.72
2018-08-22T04:47:05.841Z,14.78
2018-08-22T04:48:05.733Z,14.74
2018-08-22T04:49:05.597Z,14.78
2018-08-22T04:50:05.474Z,14.81
2018-08-22T04:51:05.352Z,14.75
2018-08-22T04:52:05.229Z,14.83
2018-08-22T04:53:05.104Z,14.88
2018-08-22T04:54:04.985Z,14.93
2018-08-22T04:55:04.860Z,14.93
2018-08-22T04:56:04.748Z,14.98
2018-08-22T04:57:04.616Z,15.01
2018-08-22T04:58:04.494Z,14.95
2018-08-22T04:59:04.371Z,15.03
2018-08-22T05:00:04.250Z,15.08
2018-08-22T05:01:04.131Z,15.01
2018-08-22T05:02:04.006Z,15.05
2018-08-22T05:03:03.885Z,15.06
2018-08-22T05:04:03.762Z,15.09
2018-08-22T05:05:03.640Z,15.12
2018-08-22T05:06:03.582Z,15.24
2018-08-22T05:07:03.395Z,15.23
2018-08-22T05:08:03.272Z,15.27
2018-08-22T05:09:03.150Z,15.28
2018-08-22T05:10:03.030Z,15.36
2018-08-22T05:11:02.905Z,15.30
2018-08-22T05:12:02.782Z,15.38
2018-08-22T05:13:02.660Z,15.38
2018-08-22T05:14:02.539Z,15.35
2018-08-22T05:15:02.416Z,15.48
2018-08-22T05:16:02.293Z,15.43
2018-08-22T05:17:02.172Z,15.54
2018-08-22T05:18:02.053Z,15.57
2018-08-22T05:19:01.931Z,15.66
2018-08-22T05:20:01.807Z,15.66
2018-08-22T05:21:01.688Z,15.57
2018-08-22T05:22:01.561Z,15.70
2018-08-22T05:23:01.440Z,15.72
2018-08-22T05:24:01.317Z,15.79
2018-08-22T05:25:01.196Z,15.84
2018-08-22T05:26:01.083Z,15.84
2018-08-22T05:27:00.953Z,15.74
2018-08-22T05:28:00.832Z,15.82
2018-08-22T05:29:00.705Z,15.81
2018-08-22T05:30:00.620Z,15.78
2018-08-22T05:31:00.462Z,15.84
2018-08-22T05:32:00.344Z,15.78
2018-08-22T05:33:00.217Z,15.85
2018-08-22T05:34:00.096Z,15.82
2018-08-22T05:34:59.976Z,15.88
2018-08-22T05:35:59.857Z,15.84
2018-08-22T05:36:59.734Z,15.84
2018-08-22T05:37:59.611Z,15.96
2018-08-22T05:38:59.489Z,15.92
2018-08-22T05:39:59.403Z,15.88
2018-08-22T05:40:59.242Z,15.89
2018-08-22T05:41:59.123Z,15.94
2018-08-22T05:42:59.002Z,15.88
2018-08-22T05:43:58.878Z,15.96
2018-08-22T05:44:58.755Z,15.96
2018-08-22T05:45:58.635Z,16.11
2018-08-22T05:46:58.513Z,16.00
2018-08-22T05:47:58.393Z,16.03
2018-08-22T05:48:58.270Z,16.22
2018-08-22T05:49:58.148Z,16.15
2018-08-22T05:50:58.025Z,16.12
2018-08-22T05:51:57.904Z,16.16
2018-08-22T05:52:57.787Z,16.23
2018-08-22T05:53:57.661Z,16.01
2018-08-22T05:54:57.544Z,15.92
2018-08-22T05:55:57.420Z,15.79
2018-08-22T05:56:57.296Z,15.78
2018-08-22T05:57:57.175Z,15.68
2018-08-22T05:58:57.054Z,15.61
2018-08-22T05:59:56.938Z,15.60
2018-08-22T06:00:56.810Z,15.59
2018-08-22T06:01:56.689Z,15.60
2018-08-22T06:02:56.569Z,15.72
2018-08-22T06:03:56.450Z,15.56
2018-08-22T06:04:56.327Z,15.67
2018-08-22T06:05:56.203Z,15.70
2018-08-22T06:06:56.085Z,15.70
2018-08-22T06:07:55.965Z,15.79
2018-08-22T06:08:55.839Z,15.89
2018-08-22T06:09:55.721Z,15.92
2018-08-22T06:10:55.606Z,15.93
2018-08-22T06:11:55.475Z,16.09
2018-08-22T06:12:55.353Z,16.06
2018-08-22T06:13:55.234Z,16.15
2018-08-22T06:14:55.113Z,16.18
2018-08-22T06:15:55.008Z,16.35
2018-08-22T06:16:54.869Z,16.33
2018-08-22T06:17:54.748Z,16.38
2018-08-22T06:18:54.626Z,16.41
2018-08-22T06:19:54.506Z,16.41
2018-08-22T06:20:54.383Z,16.42
2018-08-22T06:21:54.264Z,16.52
2018-08-22T06:22:54.141Z,16.48
2018-08-22T06:23:54.020Z,16.48
2018-08-22T06:24:53.904Z,16.49
2018-08-22T06:25:53.780Z,16.50
2018-08-22T06:26:53.659Z,16.59
2018-08-22T06:27:53.539Z,16.53
2018-08-22T06:28:53.418Z,16.60
2018-08-22T06:29:53.294Z,16.68
2018-08-22T06:30:53.173Z,16.73
2018-08-22T06:31:53.058Z,16.88
2018-08-22T06:32:52.981Z,16.85
2018-08-22T06:33:52.811Z,16.83
2018-08-22T06:34:52.690Z,16.65
2018-08-22T06:35:52.571Z,16.65
2018-08-22T06:36:52.450Z,16.59
2018-08-22T06:37:52.328Z,16.59
2018-08-22T06:38:52.207Z,16.52
2018-08-22T06:39:52.087Z,16.67
2018-08-22T06:40:51.966Z,16.56
2018-08-22T06:41:51.845Z,16.67
2018-08-22T06:42:51.726Z,16.71
2018-08-22T06:43:51.606Z,16.78
2018-08-22T06:44:51.484Z,16.78
2018-08-22T06:45:51.363Z,16.68
2018-08-22T06:46:51.247Z,16.78
2018-08-22T06:47:51.122Z,16.93
2018-08-22T06:48:51.000Z,16.98
2018-08-22T06:49:50.878Z,16.99
2018-08-22T06:50:50.758Z,17.13
2018-08-22T06:51:50.638Z,17.14
2018-08-22T06:52:50.517Z,17.26
2018-08-22T06:53:50.395Z,17.33
2018-08-22T06:54:50.279Z,17.25
2018-08-22T06:55:50.156Z,17.36
2018-08-22T06:56:50.033Z,17.41
2018-08-22T06:57:49.912Z,17.54
2018-08-22T06:58:49.792Z,17.55
2018-08-22T06:59:49.671Z,17.67
2018-08-22T07:00:49.551Z,17.69
2018-08-22T07:01:49.430Z,17.74
2018-08-22T07:02:49.310Z,17.82
2018-08-22T07:03:49.189Z,17.79
2018-08-22T07:04:49.067Z,17.81
2018-08-22T07:05:48.949Z,17.82
2018-08-22T07:06:48.825Z,17.79
2018-08-22T07:07:48.706Z,17.88
2018-08-22T07:08:48.588Z,17.94
2018-08-22T07:09:48.467Z,18.00
2018-08-22T07:10:48.348Z,18.02
2018-08-22T07:11:48.230Z,17.95
2018-08-22T07:12:48.103Z,18.03
2018-08-22T07:13:47.984Z,18.04
2018-08-22T07:14:47.866Z,18.06
2018-08-22T07:15:47.743Z,18.13
2018-08-22T07:16:47.625Z,18.19
2018-08-22T07:17:47.504Z,18.21
2018-08-22T07:18:47.386Z,18.24
2018-08-22T07:19:47.265Z,18.36
2018-08-22T07:20:47.188Z,18.52
2018-08-22T07:21:47.025Z,18.70
2018-08-22T07:22:46.903Z,19.10
2018-08-22T07:23:46.786Z,19.15
2018-08-22T07:24:46.663Z,19.25
2018-08-22T07:25:46.543Z,19.28
2018-08-22T07:26:46.423Z,19.42
2018-08-22T07:27:46.306Z,19.57
2018-08-22T07:28:46.184Z,19.54
2018-08-22T07:29:46.067Z,19.75
2018-08-22T07:30:45.948Z,19.80
2018-08-22T07:31:45.827Z,19.91
2018-08-22T07:32:45.710Z,20.10
2018-08-22T07:33:45.588Z,20.16
2018-08-22T07:34:45.469Z,20.21
2018-08-22T07:35:45.382Z,20.27
2018-08-22T07:36:45.229Z,20.23
2018-08-22T07:37:45.111Z,20.12
2018-08-22T07:38:44.991Z,20.23
2018-08-22T07:39:44.875Z,20.35
2018-08-22T07:40:44.753Z,20.49
2018-08-22T07:41:44.635Z,20.61
2018-08-22T07:42:44.514Z,20.59
2018-08-22T07:43:44.394Z,20.71
2018-08-22T07:44:44.281Z,20.83
2018-08-22T07:45:44.157Z,20.98
2018-08-22T07:46:44.038Z,21.01
2018-08-22T07:47:43.919Z,20.96
2018-08-22T07:48:43.800Z,20.96
2018-08-22T07:49:43.682Z,20.72
2018-08-22T07:50:43.565Z,21.04
2018-08-22T07:51:43.446Z,21.19
2018-08-22T07:52:43.331Z,21.35
2018-08-22T07:53:43.210Z,21.36
2018-08-22T07:54:43.090Z,21.51
2018-08-22T07:55:42.971Z,21.71
2018-08-22T07:56:42.855Z,21.91
2018-08-22T07:57:42.738Z,21.91
2018-08-22T07:58:42.619Z,22.01
2018-08-22T07:59:42.500Z,21.90
2018-08-22T08:00:42.381Z,21.95
2018-08-22T08:01:42.309Z,21.95
2018-08-22T08:02:42.150Z,22.12
2018-08-22T08:03:42.028Z,22.16
2018-08-22T08:04:41.909Z,22.31
2018-08-22T08:05:41.793Z,22.34
2018-08-22T08:06:41.674Z,22.25
2018-08-22T08:07:41.559Z,22.16
2018-08-22T08:08:41.463Z,22.01
2018-08-22T08:09:41.321Z,21.91
2018-08-22T08:10:41.204Z,21.85
2018-08-22T08:11:41.090Z,21.75
2018-08-22T08:12:40.975Z,21.82
2018-08-22T08:13:40.854Z,21.72
2018-08-22T08:14:40.735Z,21.74
2018-08-22T08:15:40.624Z,21.83
2018-08-22T08:16:40.499Z,21.78
2018-08-22T08:17:40.383Z,21.88
2018-08-22T08:18:40.267Z,22.04
2018-08-22T08:19:40.148Z,22.29
2018-08-22T08:20:40.030Z,22.54
2018-08-22T08:21:39.915Z,22.43
2018-08-22T08:22:39.797Z,22.44
2018-08-22T08:23:39.682Z,22.37
2018-08-22T08:24:39.562Z,22.37
2018-08-22T08:25:39.447Z,22.27
2018-08-22T08:26:39.329Z,22.25
2018-08-22T08:27:39.214Z,22.32
2018-08-22T08:28:39.098Z,22.41
2018-08-22T08:29:38.978Z,22.38
2018-08-22T08:30:38.934Z,22.37
2018-08-22T08:31:38.753Z,22.31
2018-08-22T08:32:38.631Z,22.31
2018-08-22T08:33:38.511Z,22.16
2018-08-22T08:34:38.394Z,22.27
2018-08-22T08:35:38.359Z,22.56
2018-08-22T08:36:38.160Z,22.50
2018-08-22T08:37:38.041Z,22.60
2018-08-22T08:38:37.928Z,22.53
2018-08-22T08:39:37.808Z,22.69
2018-08-22T08:40:37.691Z,22.80
2018-08-22T08:41:37.630Z,22.87
2018-08-22T08:42:37.459Z,23.02
2018-08-22T08:43:37.349Z,22.83
2018-08-22T08:44:37.246Z,22.74
2018-08-22T08:45:37.107Z,22.69
2018-08-22T08:46:37.005Z,22.71
2018-08-22T08:47:36.877Z,22.75
2018-08-22T08:48:36.757Z,22.75
2018-08-22T08:49:36.726Z,22.67
2018-08-22T08:50:36.527Z,22.49
2018-08-22T08:51:36.412Z,22.47
2018-08-22T08:52:36.315Z,22.53
2018-08-22T08:53:36.176Z,22.75
2018-08-22T08:54:36.061Z,22.75
2018-08-22T08:55:35.941Z,23.01
2018-08-22T08:56:35.826Z,23.07
2018-08-22T08:57:35.709Z,23.02
2018-08-22T08:58:35.589Z,23.17
2018-08-22T08:59:35.476Z,23.24
2018-08-22T09:00:35.357Z,22.74
2018-08-22T09:01:35.251Z,22.41
2018-08-22T09:02:35.141Z,22.46
2018-08-22T09:03:35.009Z,22.65
2018-08-22T09:04:34.894Z,22.71
2018-08-22T09:05:34.775Z,22.86
2018-08-22T09:06:34.702Z,22.99
2018-08-22T09:07:34.544Z,22.89
2018-08-22T09:08:34.428Z,22.75
2018-08-22T09:09:34.309Z,22.72
2018-08-22T09:10:34.199Z,22.97
2018-08-22T09:11:34.079Z,23.19
2018-08-22T09:12:33.963Z,23.22
2018-08-22T09:13:33.845Z,23.42
2018-08-22T09:14:33.730Z,23.50
2018-08-22T09:15:33.635Z,23.67
2018-08-22T09:16:33.498Z,23.80
2018-08-22T09:17:33.382Z,23.89
2018-08-22T09:18:33.264Z,23.86
2018-08-22T09:19:33.157Z,23.79
2018-08-22T09:20:33.039Z,23.77
2018-08-22T09:21:32.974Z,23.94
2018-08-22T09:22:32.802Z,24.14
2018-08-22T09:23:32.685Z,24.16
2018-08-22T09:24:32.568Z,24.17
2018-08-22T09:25:32.456Z,24.24
2018-08-22T09:26:32.338Z,24.27
2018-08-22T09:27:32.220Z,24.12
2018-08-22T09:28:32.107Z,23.95
2018-08-22T09:29:32.000Z,23.85
2018-08-22T09:30:31.874Z,23.64
2018-08-22T09:31:31.759Z,23.45
2018-08-22T09:32:31.642Z,23.14
2018-08-22T09:33:31.528Z,23.08
2018-08-22T09:34:31.412Z,22.80
2018-08-22T09:35:31.305Z,22.65
2018-08-22T09:36:31.198Z,22.57
2018-08-22T09:37:31.064Z,22.64
2018-08-22T09:38:30.945Z,22.69
2018-08-22T09:39:30.845Z,22.74
2018-08-22T09:40:30.712Z,22.50
2018-08-22T09:41:30.595Z,22.64
2018-08-22T09:42:30.479Z,22.75
2018-08-22T09:43:30.365Z,22.96
2018-08-22T09:44:30.247Z,23.05
2018-08-22T09:45:30.135Z,23.02
2018-08-22T09:46:30.044Z,23.08
2018-08-22T09:47:29.897Z,23.11
2018-08-22T09:48:29.789Z,23.12
2018-08-22T09:49:29.667Z,22.99
2018-08-22T09:50:29.549Z,22.57
2018-08-22T09:51:29.433Z,22.44
2018-08-22T09:52:29.316Z,22.52
2018-08-22T09:53:29.202Z,22.72
2018-08-22T09:54:29.097Z,22.68
2018-08-22T09:55:28.977Z,22.75
2018-08-22T09:56:28.852Z,22.71
2018-08-22T09:57:28.737Z,22.80
2018-08-22T09:58:28.617Z,22.93
2018-08-22T09:59:28.512Z,23.05
2018-08-22T10:00:28.385Z,23.01
2018-08-22T10:01:28.269Z,23.01
2018-08-22T10:02:28.154Z,23.01
2018-08-22T10:03:28.036Z,23.11
2018-08-22T10:04:27.924Z,23.05
2018-08-22T10:05:27.807Z,22.71
2018-08-22T10:06:27.756Z,22.84
2018-08-22T10:07:27.663Z,22.69
2018-08-22T10:08:27.456Z,22.54
2018-08-22T10:09:27.342Z,22.43
2018-08-22T10:10:27.225Z,22.34
2018-08-22T10:11:27.115Z,22.41
2018-08-22T10:12:26.994Z,22.53
2018-08-22T10:13:26.874Z,22.65
2018-08-22T10:14:26.760Z,22.77
2018-08-22T10:15:26.646Z,22.68
2018-08-22T10:16:26.531Z,22.53
2018-08-22T10:17:26.412Z,22.75
2018-08-22T10:18:26.298Z,23.09
2018-08-22T10:19:26.182Z,23.35
2018-08-22T10:20:26.066Z,23.35
2018-08-22T10:21:25.946Z,23.39
2018-08-22T10:22:25.834Z,23.45
2018-08-22T10:23:25.718Z,23.49
2018-08-22T10:24:25.604Z,23.62
2018-08-22T10:25:25.487Z,23.62
2018-08-22T10:26:25.382Z,23.68
2018-08-22T10:27:25.253Z,23.80
2018-08-22T10:28:25.137Z,23.80
2018-08-22T10:29:25.023Z,24.00
2018-08-22T10:30:24.908Z,24.35
2018-08-22T10:31:24.790Z,24.22
2018-08-22T10:32:24.675Z,24.44
2018-08-22T10:33:24.561Z,24.79
2018-08-22T10:34:24.446Z,24.88
2018-08-22T10:35:24.330Z,25.06
2018-08-22T10:36:24.212Z,25.17
2018-08-22T10:37:24.098Z,25.01
2018-08-22T10:38:23.985Z,25.09
2018-08-22T10:39:23.878Z,24.94
2018-08-22T10:40:23.752Z,24.87
2018-08-22T10:41:23.638Z,24.67
2018-08-22T10:42:23.523Z,24.69
2018-08-22T10:43:23.411Z,24.71
2018-08-22T10:44:23.347Z,24.83
2018-08-22T10:45:23.185Z,25.06
2018-08-22T10:46:23.065Z,25.28
2018-08-22T10:47:22.949Z,25.32
2018-08-22T10:48:22.862Z,25.35
2018-08-22T10:49:22.719Z,25.20
2018-08-22T10:50:22.604Z,25.49
2018-08-22T10:51:22.492Z,25.52
2018-08-22T10:52:22.375Z,25.57
2018-08-22T10:53:22.264Z,25.50
2018-08-22T10:54:22.148Z,25.47
2018-08-22T10:55:22.059Z,25.20
2018-08-22T10:56:21.916Z,25.35
2018-08-22T10:57:21.802Z,25.57
2018-08-22T10:58:21.690Z,25.68
2018-08-22T10:59:21.576Z,25.50
2018-08-22T11:00:21.463Z,25.31
2018-08-22T11:01:21.347Z,25.25
2018-08-22T11:02:21.235Z,25.31
2018-08-22T11:03:21.120Z,25.27
2018-08-22T11:04:21.004Z,25.27
2018-08-22T11:05:20.891Z,25.00
2018-08-22T11:06:20.773Z,24.98
2018-08-22T11:07:20.661Z,25.02
2018-08-22T11:08:20.545Z,24.97
2018-08-22T11:09:20.431Z,25.10
2018-08-22T11:10:20.316Z,25.12
2018-08-22T11:11:20.205Z,25.02
2018-08-22T11:12:20.092Z,24.98
2018-08-22T11:13:19.975Z,24.92
2018-08-22T11:14:19.858Z,24.98
2018-08-22T11:15:19.746Z,24.94
2018-08-22T11:16:19.629Z,24.95
2018-08-22T11:17:19.516Z,24.95
2018-08-22T11:18:19.399Z,25.00
2018-08-22T11:19:19.282Z,25.02
2018-08-22T11:20:19.169Z,24.97
2018-08-22T11:21:19.067Z,24.91
2018-08-22T11:22:19.006Z,24.97
2018-08-22T11:23:18.824Z,24.88
2018-08-22T11:24:18.710Z,24.95
2018-08-22T11:25:18.594Z,24.95
2018-08-22T11:26:18.481Z,24.91
2018-08-22T11:27:18.367Z,25.30
2018-08-22T11:28:18.252Z,25.17
2018-08-22T11:29:18.136Z,25.05
2018-08-22T11:30:18.020Z,24.90
2018-08-22T11:31:17.905Z,24.90
2018-08-22T11:32:17.793Z,25.09
2018-08-22T11:33:17.676Z,25.17
2018-08-22T11:34:17.568Z,25.27
2018-08-22T11:35:17.449Z,25.24
2018-08-22T11:36:17.334Z,25.35
2018-08-22T11:37:17.223Z,25.35
2018-08-22T11:38:17.102Z,25.46
2018-08-22T11:39:16.990Z,25.47
2018-08-22T11:40:16.876Z,25.52
2018-08-22T11:41:16.761Z,25.47
2018-08-22T11:42:16.644Z,25.35
2018-08-22T11:43:16.536Z,25.28
2018-08-22T11:44:16.416Z,25.35
2018-08-22T11:45:16.941Z,25.16
2018-08-22T11:46:16.198Z,25.17
2018-08-22T11:47:16.074Z,24.77
2018-08-22T11:48:15.960Z,25.06
2018-08-22T11:49:15.845Z,25.28
2018-08-22T11:50:15.729Z,25.65
2018-08-22T11:51:15.616Z,26.08
2018-08-22T11:52:15.503Z,26.39
2018-08-22T11:53:15.391Z,26.98
2018-08-22T11:54:15.274Z,27.06
2018-08-22T11:55:15.161Z,27.06
2018-08-22T11:56:15.049Z,26.98
2018-08-22T11:57:14.934Z,26.92
2018-08-22T11:58:14.852Z,26.89
2018-08-22T11:59:14.708Z,26.95
2018-08-22T12:00:14.592Z,26.94
2018-08-22T12:01:14.492Z,27.11
2018-08-22T12:02:14.369Z,27.04
2018-08-22T12:03:14.253Z,26.79
2018-08-22T12:04:14.140Z,27.39
2018-08-22T12:05:14.027Z,27.57
2018-08-22T12:06:13.928Z,27.92
2018-08-22T12:07:13.819Z,28.29
2018-08-22T12:08:13.689Z,28.38
2018-08-22T12:09:13.573Z,28.23
2018-08-22T12:10:13.461Z,28.01
2018-08-22T12:11:13.354Z,28.28
2018-08-22T12:12:13.238Z,28.26
2018-08-22T12:13:13.123Z,28.63
2018-08-22T12:14:13.011Z,28.59
2018-08-22T12:15:12.901Z,28.56
2018-08-22T12:16:12.851Z,28.80
2018-08-22T12:17:12.675Z,28.35
2018-08-22T12:18:12.563Z,28.23
2018-08-22T12:19:12.452Z,27.92
2018-08-22T12:20:12.341Z,27.73
2018-08-22T12:21:12.228Z,27.85
2018-08-22T12:22:12.114Z,27.70
2018-08-22T12:23:12.127Z,27.48
2018-08-22T12:24:11.890Z,27.70
2018-08-22T12:25:11.780Z,27.06
2018-08-22T12:26:11.666Z,27.38
2018-08-22T12:27:11.554Z,27.47
2018-08-22T12:28:11.441Z,27.04
2018-08-22T12:29:11.329Z,27.05
2018-08-22T12:30:11.218Z,27.43
2018-08-22T12:31:11.166Z,28.40
2018-08-22T12:32:10.995Z,29.07
2018-08-22T12:33:10.884Z,29.37
2018-08-22T12:34:10.776Z,29.78
2018-08-22T12:35:10.659Z,29.71
2018-08-22T12:36:10.545Z,30.14
2018-08-22T12:37:10.443Z,30.09
2018-08-22T12:38:10.322Z,30.29
2018-08-22T12:39:10.214Z,30.87
2018-08-22T12:40:10.114Z,31.17
2018-08-22T12:41:09.991Z,31.06
2018-08-22T12:42:09.879Z,30.72
2018-08-22T12:43:09.769Z,30.52
2018-08-22T12:44:09.657Z,30.67
2018-08-22T12:45:09.547Z,30.36
2018-08-22T12:46:09.437Z,29.55
2018-08-22T12:47:09.326Z,29.01
2018-08-22T12:48:09.221Z,29.57
2018-08-22T12:49:09.109Z,29.45
2018-08-22T12:50:08.997Z,28.90
2018-08-22T12:51:08.884Z,28.88